Hemlock, New York
Current Conditions -  °F | °C
As of 9:54 PM on Friday 21 Nov 2014 (Local Time) from KDSV Reporting Station
Overcast Overcast  
Wind Chill: 16°   Ceiling: 3700
Heat Index: 24°   Visibility: 10mi
Dew Point: 11°   Wind: 7mph
Humidity: 57%   Direction: 180°S
Pressure: 30.43"   Gusts: NA
Location:  42.79°N, 77.61°W
Report Text: KDSV 220254Z AUTO 18006KT 10SM OVC037 M04/M12 A3043 RMK AO2 SLP323 T10441117 58004
Loading
Personal Weather Stations






























Interactive Weather Map New forecast layout! Learn more

10-Day Weather Forecast

Advertisements
Track Severe Weather on mobile